createdAt,value
2023-03-21T00:00:41.883Z,69.92
2023-03-21T00:01:41.853Z,70.53
2023-03-21T00:02:41.870Z,70.74
2023-03-21T00:03:41.862Z,70.84
2023-03-21T00:04:51.224Z,70.74
2023-03-21T00:05:42.254Z,70.64
2023-03-21T00:06:41.802Z,70.84
2023-03-21T00:07:41.784Z,70.74
2023-03-21T00:08:41.778Z,71.05
2023-03-21T00:09:41.764Z,71.25
2023-03-21T00:10:43.977Z,71.45
2023-03-21T00:11:41.738Z,71.15
2023-03-21T00:12:41.732Z,70.84
2023-03-21T00:13:41.743Z,71.15
2023-03-21T00:14:41.716Z,71.35
2023-03-21T00:15:51.262Z,71.15
2023-03-21T00:16:41.813Z,70.94
2023-03-21T00:17:41.669Z,70.97
2023-03-21T00:18:41.722Z,71.18
2023-03-21T00:19:41.646Z,71.28
2023-03-21T00:20:41.638Z,71.18
2023-03-21T00:22:03.238Z,71.18
2023-03-21T00:22:41.613Z,71.38
2023-03-21T00:23:41.609Z,71.49
2023-03-21T00:24:41.600Z,71.79
2023-03-21T00:25:41.584Z,71.69
2023-03-21T00:26:41.576Z,72.00
2023-03-21T00:28:01.097Z,71.89
2023-03-21T00:28:41.543Z,71.79
2023-03-21T00:29:41.558Z,71.69
2023-03-21T00:30:41.519Z,71.69
2023-03-21T00:31:41.510Z,71.89
2023-03-21T00:32:55.266Z,71.79
2023-03-21T00:33:41.490Z,71.89
2023-03-21T00:34:43.454Z,72.10
2023-03-21T00:35:58.451Z,71.89
2023-03-21T00:36:41.506Z,71.72
2023-03-21T00:37:41.452Z,71.62
2023-03-21T00:38:41.459Z,71.72
2023-03-21T00:39:41.437Z,71.83
2023-03-21T00:40:48.814Z,71.93
2023-03-21T00:41:43.233Z,71.83
2023-03-21T00:42:41.384Z,71.66
2023-03-21T00:43:41.371Z,71.86
2023-03-21T00:44:41.365Z,72.07
2023-03-21T00:45:41.378Z,72.07
2023-03-21T00:46:57.064Z,71.96
2023-03-21T00:47:41.437Z,72.07
2023-03-21T00:48:41.337Z,72.03
2023-03-21T00:49:41.305Z,72.03
2023-03-21T00:50:41.296Z,72.03
2023-03-21T00:51:41.284Z,72.03
2023-03-21T00:52:41.642Z,72.03
2023-03-21T00:53:41.263Z,71.93
2023-03-21T00:54:41.248Z,72.03
2023-03-21T00:55:41.244Z,72.13
2023-03-21T00:56:41.230Z,72.03
2023-03-21T00:57:42.327Z,72.13
2023-03-21T00:58:41.203Z,72.24
2023-03-21T00:59:41.193Z,72.44
2023-03-21T01:00:41.198Z,72.34
2023-03-21T01:01:41.308Z,72.34
2023-03-21T01:02:41.964Z,72.65
2023-03-21T01:03:41.150Z,72.65
2023-03-21T01:04:41.136Z,72.75
2023-03-21T01:05:41.125Z,72.95
2023-03-21T01:06:41.118Z,72.85
2023-03-21T01:07:41.105Z,73.05
2023-03-21T01:08:53.234Z,73.46
2023-03-21T01:09:41.090Z,73.46
2023-03-21T01:10:41.075Z,73.77
2023-03-21T01:11:41.061Z,73.67
2023-03-21T01:12:41.047Z,73.46
2023-03-21T01:13:52.990Z,73.67
2023-03-21T01:14:41.023Z,73.98
2023-03-21T01:15:41.011Z,73.87
2023-03-21T01:16:41.034Z,73.87
2023-03-21T01:17:41.018Z,73.77
2023-03-21T01:18:40.987Z,73.87
2023-03-21T01:19:51.717Z,73.67
2023-03-21T01:20:40.955Z,73.46
2023-03-21T01:21:40.978Z,73.57
2023-03-21T01:22:40.936Z,73.67
2023-03-21T01:23:40.921Z,73.60
2023-03-21T01:24:52.506Z,73.80
2023-03-21T01:25:40.902Z,73.80
2023-03-21T01:26:40.892Z,73.70
2023-03-21T01:27:40.883Z,73.70
2023-03-21T01:28:40.864Z,73.70
2023-03-21T01:29:40.925Z,73.67
2023-03-21T01:30:42.071Z,73.67
2023-03-21T01:31:40.877Z,73.57
2023-03-21T01:32:40.818Z,73.46
2023-03-21T01:33:40.841Z,73.46
2023-03-21T01:34:40.804Z,73.36
2023-03-21T01:35:50.167Z,73.60
2023-03-21T01:36:40.820Z,73.77
2023-03-21T01:37:40.775Z,73.67
2023-03-21T01:38:40.750Z,73.80
2023-03-21T01:39:40.745Z,73.70
2023-03-21T01:40:40.727Z,73.91
2023-03-21T01:41:43.304Z,73.91
2023-03-21T01:42:40.710Z,73.91
2023-03-21T01:43:40.701Z,73.70
2023-03-21T01:44:40.682Z,73.80
2023-03-21T01:45:40.751Z,74.01
2023-03-21T01:46:49.678Z,74.11
2023-03-21T01:47:40.704Z,74.01
2023-03-21T01:48:40.637Z,74.11
2023-03-21T01:49:40.653Z,74.01
2023-03-21T01:50:40.620Z,73.80
2023-03-21T01:51:40.608Z,73.91
2023-03-21T01:52:40.649Z,73.87
2023-03-21T01:53:40.596Z,73.87
2023-03-21T01:54:40.574Z,73.87
2023-03-21T01:55:40.559Z,73.77
2023-03-21T01:56:40.560Z,73.77
2023-03-21T01:57:47.282Z,73.77
2023-03-21T01:58:40.530Z,73.87
2023-03-21T01:59:40.520Z,74.08
2023-03-21T02:00:40.559Z,73.98
2023-03-21T02:01:40.498Z,73.98
2023-03-21T02:02:40.480Z,73.87
2023-03-21T02:03:40.550Z,73.87
2023-03-21T02:04:40.458Z,73.77
2023-03-21T02:05:40.467Z,73.67
2023-03-21T02:06:40.434Z,73.67
2023-03-21T02:07:40.424Z,73.67
2023-03-21T02:08:40.414Z,73.57
2023-03-21T02:09:40.449Z,73.67
2023-03-21T02:10:40.391Z,73.87
2023-03-21T02:11:40.378Z,74.08
2023-03-21T02:12:40.365Z,74.08
2023-03-21T02:13:40.371Z,74.08
2023-03-21T02:14:40.342Z,73.98
2023-03-21T02:15:40.335Z,74.11
2023-03-21T02:16:40.327Z,74.21
2023-03-21T02:17:40.313Z,74.42
2023-03-21T02:18:40.308Z,74.53
2023-03-21T02:19:50.949Z,74.42
2023-03-21T02:20:40.283Z,74.32
2023-03-21T02:21:40.305Z,74.32
2023-03-21T02:22:40.254Z,74.32
2023-03-21T02:23:40.245Z,74.42
2023-03-21T02:24:42.694Z,74.53
2023-03-21T02:25:40.283Z,74.62
2023-03-21T02:26:42.918Z,74.38
2023-03-21T02:27:40.197Z,74.42
2023-03-21T02:28:40.191Z,74.38
2023-03-21T02:29:40.175Z,74.53
2023-03-21T02:30:51.264Z,74.73
2023-03-21T02:31:40.225Z,74.62
2023-03-21T02:32:40.139Z,74.83
2023-03-21T02:33:40.133Z,74.93
2023-03-21T02:34:40.117Z,75.14
2023-03-21T02:35:47.142Z,75.14
2023-03-21T02:36:40.127Z,75.03
2023-03-21T02:37:40.344Z,75.03
2023-03-21T02:38:40.069Z,74.93
2023-03-21T02:39:40.066Z,75.03
2023-03-21T02:40:40.139Z,75.14
2023-03-21T02:41:40.718Z,75.14
2023-03-21T02:42:41.067Z,75.34
2023-03-21T02:43:40.023Z,75.38
2023-03-21T02:44:40.008Z,75.48
2023-03-21T02:45:40.011Z,75.58
2023-03-21T02:46:44.169Z,75.58
2023-03-21T02:47:40.093Z,75.58
2023-03-21T02:48:50.289Z,75.68
2023-03-21T02:49:39.948Z,75.58
2023-03-21T02:50:39.936Z,75.58
2023-03-21T02:51:39.924Z,75.48
2023-03-21T02:52:40.005Z,75.58
2023-03-21T02:53:39.930Z,75.68
2023-03-21T02:54:48.086Z,75.79
2023-03-21T02:55:39.881Z,75.79
2023-03-21T02:56:39.874Z,75.79
2023-03-21T02:57:43.190Z,75.79
2023-03-21T02:58:39.852Z,75.68
2023-03-21T02:59:51.635Z,75.79
2023-03-21T03:00:39.840Z,75.79
2023-03-21T03:01:39.897Z,75.89
2023-03-21T03:02:39.802Z,75.99
2023-03-21T03:03:39.787Z,75.99
2023-03-21T03:04:39.898Z,76.09
2023-03-21T03:05:39.770Z,76.20
2023-03-21T03:06:39.757Z,76.09
2023-03-21T03:07:39.773Z,76.20
2023-03-21T03:08:47.536Z,76.30
2023-03-21T03:09:39.754Z,76.40
2023-03-21T03:10:39.781Z,76.40
2023-03-21T03:11:39.707Z,76.50
2023-03-21T03:12:39.692Z,76.61
2023-03-21T03:13:39.686Z,76.61
2023-03-21T03:14:53.164Z,76.61
2023-03-21T03:15:39.733Z,76.61
2023-03-21T03:16:39.645Z,76.64
2023-03-21T03:17:39.650Z,76.75
2023-03-21T03:18:39.620Z,76.84
2023-03-21T03:19:49.753Z,77.05
2023-03-21T03:20:40.090Z,77.16
2023-03-21T03:21:39.591Z,77.25
2023-03-21T03:22:39.578Z,77.36
2023-03-21T03:23:39.573Z,77.36
2023-03-21T03:24:39.557Z,77.46
2023-03-21T03:25:43.301Z,77.36
2023-03-21T03:26:39.547Z,77.36
2023-03-21T03:27:39.527Z,77.42
2023-03-21T03:28:39.514Z,77.42
2023-03-21T03:29:39.556Z,77.46
2023-03-21T03:30:44.993Z,77.53
2023-03-21T03:31:39.535Z,77.56
2023-03-21T03:32:39.468Z,77.77
2023-03-21T03:33:39.461Z,77.83
2023-03-21T03:34:39.447Z,77.94
2023-03-21T03:35:39.454Z,78.04
2023-03-21T03:36:39.476Z,78.08
2023-03-21T03:37:39.410Z,78.18
2023-03-21T03:38:39.395Z,78.18
2023-03-21T03:39:39.383Z,78.18
2023-03-21T03:40:39.619Z,78.14
2023-03-21T03:42:07.880Z,78.18
2023-03-21T03:42:39.353Z,78.18
2023-03-21T03:43:39.344Z,78.28
2023-03-21T03:44:39.326Z,78.28
2023-03-21T03:45:39.320Z,78.28
2023-03-21T03:46:39.335Z,78.49
2023-03-21T03:47:47.732Z,78.59
2023-03-21T03:48:39.296Z,78.69
2023-03-21T03:49:39.268Z,79.00
2023-03-21T03:50:39.507Z,79.20
2023-03-21T03:51:39.251Z,79.30
2023-03-21T03:52:50.052Z,79.51
2023-03-21T03:53:39.236Z,79.62
2023-03-21T03:54:39.226Z,79.92
2023-03-21T03:55:39.202Z,80.02
2023-03-21T03:56:39.200Z,79.92
2023-03-21T03:57:39.204Z,80.02
2023-03-21T03:58:45.222Z,80.26
2023-03-21T03:59:39.162Z,80.47
2023-03-21T04:00:39.237Z,80.57
2023-03-21T04:01:39.228Z,80.68
2023-03-21T04:02:39.195Z,80.88
2023-03-21T04:03:48.374Z,80.98
2023-03-21T04:04:39.234Z,81.09
2023-03-21T04:05:39.095Z,81.19
2023-03-21T04:06:39.082Z,81.29
2023-03-21T04:07:39.072Z,81.29
2023-03-21T04:08:39.060Z,81.29
2023-03-21T04:09:44.602Z,81.29
2023-03-21T04:10:39.345Z,81.19
2023-03-21T04:11:39.033Z,81.09
2023-03-21T04:12:39.024Z,80.98
2023-03-21T04:13:39.028Z,81.09
2023-03-21T04:14:45.825Z,80.98
2023-03-21T04:15:38.984Z,81.09
2023-03-21T04:16:39.039Z,81.09
2023-03-21T04:17:38.962Z,81.09
2023-03-21T04:18:38.951Z,80.98
2023-03-21T04:19:38.977Z,80.88
2023-03-21T04:20:38.936Z,80.78
2023-03-21T04:21:38.916Z,80.74
2023-03-21T04:22:38.910Z,80.63
2023-03-21T04:23:38.893Z,80.63
2023-03-21T04:24:38.881Z,80.63
2023-03-21T04:25:47.607Z,80.68
2023-03-21T04:26:38.861Z,80.78
2023-03-21T04:27:38.850Z,80.63
2023-03-21T04:28:38.840Z,80.63
2023-03-21T04:29:38.875Z,80.68
2023-03-21T04:30:39.103Z,80.68
2023-03-21T04:31:38.828Z,80.78
2023-03-21T04:32:38.798Z,80.88
2023-03-21T04:33:38.805Z,80.88
2023-03-21T04:34:38.769Z,80.98
2023-03-21T04:35:38.812Z,80.98
2023-03-21T04:36:39.090Z,81.09
2023-03-21T04:37:38.736Z,81.29
2023-03-21T04:38:38.732Z,81.39
2023-03-21T04:39:38.720Z,81.29
2023-03-21T04:40:39.141Z,81.19
2023-03-21T04:41:38.692Z,81.29
2023-03-21T04:42:38.679Z,81.39
2023-03-21T04:43:38.678Z,81.50
2023-03-21T04:44:38.665Z,81.70
2023-03-21T04:45:38.685Z,81.60
2023-03-21T04:46:38.633Z,81.50
2023-03-21T04:47:38.711Z,81.50
2023-03-21T04:48:40.611Z,81.39
2023-03-21T04:49:38.600Z,81.39
2023-03-21T04:50:38.811Z,81.39
2023-03-21T04:51:38.578Z,81.39
2023-03-21T04:52:38.581Z,81.39
2023-03-21T04:53:38.577Z,81.50
2023-03-21T04:54:38.569Z,81.39
2023-03-21T04:55:38.862Z,81.39
2023-03-21T04:56:40.520Z,81.50
2023-03-21T04:57:38.555Z,81.50
2023-03-21T04:58:38.496Z,81.50
2023-03-21T04:59:38.494Z,81.50
2023-03-21T05:00:38.477Z,81.35
2023-03-21T05:01:38.489Z,81.29
2023-03-21T05:02:38.483Z,81.19
2023-03-21T05:03:38.479Z,81.19
2023-03-21T05:04:38.430Z,81.29
2023-03-21T05:05:38.778Z,81.29
2023-03-21T05:06:38.409Z,81.39
2023-03-21T05:07:38.402Z,81.50
2023-03-21T05:08:38.392Z,81.50
2023-03-21T05:09:40.378Z,81.60
2023-03-21T05:10:38.367Z,81.70
2023-03-21T05:11:38.355Z,81.70
2023-03-21T05:12:38.341Z,81.80
2023-03-21T05:13:38.333Z,82.11
2023-03-21T05:14:38.313Z,82.11
2023-03-21T05:15:38.804Z,82.11
2023-03-21T05:16:38.329Z,82.11
2023-03-21T05:17:38.309Z,82.11
2023-03-21T05:18:38.276Z,82.22
2023-03-21T05:19:38.258Z,82.31
2023-03-21T05:20:38.249Z,82.31
2023-03-21T05:21:38.238Z,82.38
2023-03-21T05:22:40.288Z,82.38
2023-03-21T05:23:38.290Z,82.28
2023-03-21T05:24:38.204Z,82.38
2023-03-21T05:25:38.519Z,82.62
2023-03-21T05:26:38.184Z,82.79
2023-03-21T05:27:38.177Z,82.83
2023-03-21T05:28:38.173Z,83.03
2023-03-21T05:29:38.154Z,83.24
2023-03-21T05:30:38.164Z,83.44
2023-03-21T05:31:40.120Z,83.55
2023-03-21T05:32:38.118Z,83.65
2023-03-21T05:33:38.128Z,83.85
2023-03-21T05:34:38.095Z,83.95
2023-03-21T05:35:38.362Z,84.16
2023-03-21T05:36:38.066Z,84.36
2023-03-21T05:37:38.059Z,84.47
2023-03-21T05:38:38.051Z,84.36
2023-03-21T05:39:38.034Z,84.47
2023-03-21T05:40:38.028Z,84.47
2023-03-21T05:41:38.026Z,84.36
2023-03-21T05:42:38.004Z,84.36
2023-03-21T05:43:37.996Z,84.27
2023-03-21T05:44:37.978Z,84.27
2023-03-21T05:45:38.262Z,84.36
2023-03-21T05:46:38.012Z,84.27
2023-03-21T05:47:38.135Z,84.27
2023-03-21T05:48:37.936Z,84.27
2023-03-21T05:49:37.971Z,84.36
2023-03-21T05:50:37.909Z,84.36
2023-03-21T05:51:37.902Z,84.47
2023-03-21T05:52:37.886Z,84.57
2023-03-21T05:53:37.878Z,84.57
2023-03-21T05:54:37.869Z,84.57
2023-03-21T05:55:38.272Z,84.68
2023-03-21T05:56:37.845Z,84.71
2023-03-21T05:57:37.839Z,84.82
2023-03-21T05:58:37.848Z,84.71
2023-03-21T05:59:37.817Z,84.82
2023-03-21T06:00:37.797Z,84.82
2023-03-21T06:01:37.791Z,84.92
2023-03-21T06:02:37.793Z,85.12
2023-03-21T06:03:37.827Z,85.22
2023-03-21T06:04:37.756Z,85.33
2023-03-21T06:05:38.100Z,85.43
2023-03-21T06:06:37.737Z,85.33
2023-03-21T06:07:37.727Z,85.22
2023-03-21T06:08:37.712Z,85.33
2023-03-21T06:09:37.705Z,85.43
2023-03-21T06:10:37.691Z,85.57
2023-03-21T06:11:37.714Z,85.47
2023-03-21T06:12:37.664Z,85.57
2023-03-21T06:13:37.654Z,85.57
2023-03-21T06:14:37.666Z,85.68
2023-03-21T06:15:37.986Z,85.68
2023-03-21T06:16:37.631Z,85.78
2023-03-21T06:17:37.624Z,85.68
2023-03-21T06:18:37.601Z,85.68
2023-03-21T06:19:37.586Z,85.74
2023-03-21T06:20:37.574Z,85.74
2023-03-21T06:21:37.587Z,85.63
2023-03-21T06:22:37.551Z,85.63
2023-03-21T06:23:37.581Z,85.43
2023-03-21T06:24:37.536Z,85.19
2023-03-21T06:25:37.898Z,85.19
2023-03-21T06:26:37.509Z,85.08
2023-03-21T06:27:37.500Z,84.98
2023-03-21T06:28:37.485Z,84.88
2023-03-21T06:29:37.478Z,84.63
2023-03-21T06:30:37.471Z,84.53
2023-03-21T06:31:37.497Z,84.43
2023-03-21T06:32:37.443Z,84.22
2023-03-21T06:33:37.437Z,84.06
2023-03-21T06:34:39.435Z,84.27
2023-03-21T06:35:37.677Z,84.51
2023-03-21T06:36:37.405Z,84.71
2023-03-21T06:37:37.411Z,84.92
2023-03-21T06:38:37.391Z,84.92
2023-03-21T06:39:37.361Z,85.02
2023-03-21T06:40:37.357Z,85.12
2023-03-21T06:41:37.337Z,85.02
2023-03-21T06:42:37.327Z,85.12
2023-03-21T06:43:37.314Z,85.22
2023-03-21T06:44:37.303Z,85.22
2023-03-21T06:45:37.588Z,85.22
2023-03-21T06:46:37.369Z,85.33
2023-03-21T06:47:37.271Z,85.22
2023-03-21T06:48:37.266Z,85.33
2023-03-21T06:49:37.254Z,85.43
2023-03-21T06:50:37.235Z,85.54
2023-03-21T06:51:37.318Z,85.63
2023-03-21T06:52:37.219Z,85.54
2023-03-21T06:53:37.237Z,85.54
2023-03-21T06:54:37.198Z,85.63
2023-03-21T06:55:37.376Z,85.60
2023-03-21T06:56:37.175Z,85.49
2023-03-21T06:57:37.158Z,85.39
2023-03-21T06:58:37.148Z,85.25
2023-03-21T06:59:37.134Z,85.15
2023-03-21T07:00:37.177Z,84.88
2023-03-21T07:01:37.114Z,84.78
2023-03-21T07:02:37.163Z,84.88
2023-03-21T07:03:37.090Z,84.98
2023-03-21T07:04:37.082Z,84.98
2023-03-21T07:05:37.383Z,84.98
2023-03-21T07:06:37.059Z,85.12
2023-03-21T07:07:37.047Z,85.19
2023-03-21T07:08:37.069Z,85.29
2023-03-21T07:09:37.056Z,85.39
2023-03-21T07:10:37.012Z,85.29
2023-03-21T07:11:37.029Z,85.54
2023-03-21T07:12:36.990Z,85.84
2023-03-21T07:13:36.975Z,86.05
2023-03-21T07:14:36.967Z,86.05
2023-03-21T07:15:37.213Z,86.25
2023-03-21T07:16:37.026Z,86.46
2023-03-21T07:17:36.943Z,86.56
2023-03-21T07:18:36.941Z,86.66
2023-03-21T07:19:36.913Z,86.87
2023-03-21T07:20:36.909Z,86.87
2023-03-21T07:21:36.897Z,86.87
2023-03-21T07:22:36.878Z,86.87
2023-03-21T07:23:36.867Z,86.87
2023-03-21T07:24:36.862Z,86.97
2023-03-21T07:25:37.525Z,87.07
2023-03-21T07:26:36.847Z,87.17
2023-03-21T07:27:38.173Z,87.38
2023-03-21T07:28:36.814Z,87.48
2023-03-21T07:29:36.801Z,87.48
2023-03-21T07:30:36.788Z,87.38
2023-03-21T07:31:36.916Z,87.48
2023-03-21T07:32:36.772Z,87.48
2023-03-21T07:33:36.755Z,87.38
2023-03-21T07:34:36.743Z,87.48
2023-03-21T07:35:37.108Z,87.79
2023-03-21T07:36:36.724Z,87.89
2023-03-21T07:37:38.150Z,88.00
2023-03-21T07:38:36.698Z,88.00
2023-03-21T07:39:36.706Z,87.79
2023-03-21T07:40:37.073Z,88.00
2023-03-21T07:41:36.696Z,88.10
2023-03-21T07:42:36.709Z,88.20
2023-03-21T07:43:38.390Z,88.20
2023-03-21T07:44:36.654Z,88.20
2023-03-21T07:45:36.877Z,88.10
2023-03-21T07:46:36.607Z,88.34
2023-03-21T07:47:36.626Z,88.75
2023-03-21T07:48:36.584Z,88.92
2023-03-21T07:49:36.571Z,88.81
2023-03-21T07:50:36.574Z,88.81
2023-03-21T07:51:36.553Z,88.51
2023-03-21T07:52:36.548Z,88.61
2023-03-21T07:53:36.529Z,88.81
2023-03-21T07:54:36.517Z,88.75
2023-03-21T07:55:36.829Z,88.86
2023-03-21T07:56:36.511Z,88.96
2023-03-21T07:57:36.504Z,88.96
2023-03-21T07:58:36.495Z,88.81
2023-03-21T07:59:36.460Z,88.92
2023-03-21T08:00:36.454Z,89.02
2023-03-21T08:01:36.440Z,89.12
2023-03-21T08:02:36.519Z,89.02
2023-03-21T08:03:36.550Z,88.92
2023-03-21T08:04:36.406Z,88.72
2023-03-21T08:05:37.053Z,88.72
2023-03-21T08:06:36.386Z,88.72
2023-03-21T08:07:36.368Z,88.61
2023-03-21T08:08:36.356Z,88.61
2023-03-21T08:09:36.348Z,88.81
2023-03-21T08:10:36.351Z,88.81
2023-03-21T08:11:36.333Z,88.92
2023-03-21T08:12:36.313Z,88.92
2023-03-21T08:13:36.341Z,88.92
2023-03-21T08:14:36.292Z,89.12
2023-03-21T08:15:36.469Z,89.33
2023-03-21T08:16:36.299Z,89.33
2023-03-21T08:17:36.265Z,89.29
2023-03-21T08:18:36.243Z,89.08
2023-03-21T08:19:36.233Z,88.57
2023-03-21T08:20:36.237Z,88.26
2023-03-21T08:21:36.213Z,88.16
2023-03-21T08:22:36.201Z,88.26
2023-03-21T08:23:36.229Z,87.95
2023-03-21T08:24:36.179Z,87.85
2023-03-21T08:25:36.618Z,88.16
2023-03-21T08:26:36.151Z,88.26
2023-03-21T08:27:36.148Z,88.47
2023-03-21T08:28:36.145Z,88.47
2023-03-21T08:29:36.152Z,88.47
2023-03-21T08:30:36.168Z,88.57
2023-03-21T08:31:36.108Z,88.57
2023-03-21T08:32:36.088Z,88.57
2023-03-21T08:33:36.079Z,88.67
2023-03-21T08:34:36.066Z,88.78
2023-03-21T08:35:37.792Z,88.87
2023-03-21T08:36:36.043Z,88.98
2023-03-21T08:37:36.057Z,89.08
2023-03-21T08:38:36.037Z,89.04
2023-03-21T08:39:36.074Z,88.94
2023-03-21T08:40:35.998Z,88.94
2023-03-21T08:41:36.009Z,88.84
2023-03-21T08:42:35.980Z,88.84
2023-03-21T08:43:35.977Z,88.94
2023-03-21T08:44:35.962Z,89.04
2023-03-21T08:45:36.196Z,89.14
2023-03-21T08:46:35.962Z,89.14
2023-03-21T08:47:35.919Z,89.20
2023-03-21T08:48:35.912Z,89.10
2023-03-21T08:49:35.900Z,88.90
2023-03-21T08:50:35.884Z,89.04
2023-03-21T08:51:35.880Z,89.25
2023-03-21T08:52:35.867Z,89.25
2023-03-21T08:53:35.863Z,89.35
2023-03-21T08:54:35.851Z,89.55
2023-03-21T08:55:36.008Z,89.76
2023-03-21T08:56:37.460Z,89.76
2023-03-21T08:57:35.807Z,89.82
2023-03-21T08:58:35.795Z,89.92
2023-03-21T08:59:35.790Z,89.98
2023-03-21T09:00:35.774Z,89.78
2023-03-21T09:01:35.824Z,89.67
2023-03-21T09:02:35.765Z,89.57
2023-03-21T09:03:35.746Z,89.53
2023-03-21T09:04:35.743Z,89.33
2023-03-21T09:05:36.004Z,89.12
2023-03-21T09:06:35.708Z,88.87
2023-03-21T09:07:35.713Z,88.51
2023-03-21T09:08:35.682Z,88.20
2023-03-21T09:09:35.673Z,88.10
2023-03-21T09:10:35.664Z,87.95
2023-03-21T09:11:35.648Z,87.75
2023-03-21T09:12:35.642Z,87.75
2023-03-21T09:13:35.627Z,87.75
2023-03-21T09:14:35.619Z,87.65
2023-03-21T09:15:35.699Z,87.44
2023-03-21T09:16:35.592Z,87.59
2023-03-21T09:17:35.628Z,87.48
2023-03-21T09:18:35.572Z,87.34
2023-03-21T09:19:35.559Z,87.44
2023-03-21T09:20:35.585Z,87.44
2023-03-21T09:21:35.549Z,87.13
2023-03-21T09:22:35.530Z,86.89
2023-03-21T09:23:35.523Z,86.69
2023-03-21T09:24:35.501Z,86.48
2023-03-21T09:25:35.527Z,86.38
2023-03-21T09:26:35.479Z,86.28
2023-03-21T09:27:35.536Z,86.38
2023-03-21T09:28:35.464Z,86.38
2023-03-21T09:29:35.442Z,86.18
2023-03-21T09:30:35.438Z,86.28
2023-03-21T09:31:35.479Z,86.48
2023-03-21T09:32:35.410Z,86.42
2023-03-21T09:33:35.461Z,86.32
2023-03-21T09:34:35.385Z,86.52
2023-03-21T09:35:35.574Z,86.52
2023-03-21T09:36:35.367Z,86.56
2023-03-21T09:37:35.357Z,86.87
2023-03-21T09:38:35.342Z,86.97
2023-03-21T09:39:35.356Z,87.07
2023-03-21T09:40:35.315Z,87.18
2023-03-21T09:41:35.305Z,87.28
2023-03-21T09:42:35.295Z,87.07
2023-03-21T09:43:35.289Z,87.18
2023-03-21T09:44:35.272Z,87.38
2023-03-21T09:45:35.633Z,87.48
2023-03-21T09:46:35.295Z,87.65
2023-03-21T09:47:35.236Z,87.54
2023-03-21T09:48:37.664Z,87.28
2023-03-21T09:49:35.238Z,87.07
2023-03-21T09:50:35.210Z,87.38
2023-03-21T09:51:35.196Z,87.69
2023-03-21T09:52:35.186Z,87.69
2023-03-21T09:53:35.169Z,87.38
2023-03-21T09:54:35.158Z,87.28
2023-03-21T09:55:35.208Z,87.32
2023-03-21T09:56:35.156Z,87.53
2023-03-21T09:57:35.124Z,87.73
2023-03-21T09:58:35.119Z,87.89
2023-03-21T09:59:35.100Z,88.00
2023-03-21T10:00:35.133Z,87.59
2023-03-21T10:01:35.103Z,87.28
2023-03-21T10:02:35.066Z,87.18
2023-03-21T10:03:35.099Z,87.18
2023-03-21T10:04:35.099Z,87.13
2023-03-21T10:05:35.055Z,87.03
2023-03-21T10:06:35.017Z,86.93
2023-03-21T10:07:35.004Z,86.73
2023-03-21T10:08:34.997Z,86.52
2023-03-21T10:09:35.000Z,86.01
2023-03-21T10:10:34.987Z,86.01
2023-03-21T10:11:34.960Z,86.12
2023-03-21T10:12:35.053Z,86.21
2023-03-21T10:13:34.940Z,86.12
2023-03-21T10:14:34.942Z,86.01
2023-03-21T10:15:34.921Z,85.71
2023-03-21T10:16:34.983Z,85.91
2023-03-21T10:17:34.892Z,85.87
2023-03-21T10:18:34.878Z,85.36
2023-03-21T10:19:34.887Z,85.26
2023-03-21T10:20:34.854Z,85.15
2023-03-21T10:21:59.126Z,85.19
2023-03-21T10:22:34.838Z,85.26
2023-03-21T10:23:34.820Z,85.36
2023-03-21T10:24:34.832Z,85.26
2023-03-21T10:25:34.800Z,85.36
2023-03-21T10:26:34.799Z,85.11
2023-03-21T10:27:34.778Z,84.91
2023-03-21T10:28:50.002Z,84.30
2023-03-21T10:29:34.846Z,84.09
2023-03-21T10:30:34.736Z,84.19
2023-03-21T10:31:34.838Z,84.16
2023-03-21T10:32:34.722Z,83.95
2023-03-21T10:33:34.705Z,83.54
2023-03-21T10:34:34.706Z,83.34
2023-03-21T10:35:34.770Z,83.44
2023-03-21T10:36:34.752Z,83.34
2023-03-21T10:37:34.686Z,83.44
2023-03-21T10:38:34.656Z,83.54
2023-03-21T10:39:34.638Z,83.23
2023-03-21T10:40:35.582Z,83.20
2023-03-21T10:41:34.612Z,82.79
2023-03-21T10:42:34.600Z,82.34
2023-03-21T10:43:34.593Z,81.83
2023-03-21T10:44:34.577Z,81.63
2023-03-21T10:45:34.595Z,81.73
2023-03-21T10:46:36.246Z,81.93
2023-03-21T10:47:34.914Z,82.14
2023-03-21T10:48:34.670Z,81.89
2023-03-21T10:49:40.588Z,81.55
2023-03-21T10:50:34.559Z,80.63
2023-03-21T10:51:34.498Z,80.19
2023-03-21T10:52:34.493Z,79.37
2023-03-21T10:53:34.499Z,79.27
2023-03-21T10:54:34.464Z,79.07
2023-03-21T10:55:34.486Z,78.96
2023-03-21T10:56:34.451Z,79.21
2023-03-21T10:57:34.433Z,79.31
2023-03-21T10:58:34.425Z,79.41
2023-03-21T10:59:34.406Z,79.71
2023-03-21T11:00:34.414Z,79.82
2023-03-21T11:01:34.413Z,79.62
2023-03-21T11:02:34.457Z,79.75
2023-03-21T11:03:34.364Z,80.10
2023-03-21T11:04:34.349Z,80.51
2023-03-21T11:05:34.342Z,80.81
2023-03-21T11:06:34.334Z,80.78
2023-03-21T11:07:34.316Z,80.51
2023-03-21T11:08:34.310Z,80.71
2023-03-21T11:09:34.321Z,80.91
2023-03-21T11:10:34.287Z,80.91
2023-03-21T11:11:34.275Z,80.81
2023-03-21T11:12:34.272Z,80.71
2023-03-21T11:13:34.257Z,80.81
2023-03-21T11:14:34.240Z,81.22
2023-03-21T11:15:34.235Z,81.12
2023-03-21T11:16:34.302Z,81.12
2023-03-21T11:17:34.208Z,81.01
2023-03-21T11:18:34.196Z,81.08
2023-03-21T11:19:34.187Z,80.78
2023-03-21T11:20:34.175Z,80.71
2023-03-21T11:21:34.162Z,80.81
2023-03-21T11:22:34.155Z,80.78
2023-03-21T11:23:34.157Z,80.71
2023-03-21T11:24:34.128Z,81.01
2023-03-21T11:25:34.148Z,80.91
2023-03-21T11:26:34.104Z,80.95
2023-03-21T11:27:34.095Z,81.26
2023-03-21T11:28:34.087Z,81.36
2023-03-21T11:29:34.071Z,81.22
2023-03-21T11:30:34.106Z,81.12
2023-03-21T11:31:34.053Z,80.78
2023-03-21T11:32:34.045Z,80.26
2023-03-21T11:33:34.038Z,80.16
2023-03-21T11:34:34.014Z,80.30
2023-03-21T11:35:34.014Z,80.71
2023-03-21T11:36:33.997Z,81.15
2023-03-21T11:37:33.981Z,81.53
2023-03-21T11:38:33.973Z,81.83
2023-03-21T11:39:33.962Z,81.22
2023-03-21T11:40:33.962Z,81.12
2023-03-21T11:41:33.964Z,81.01
2023-03-21T11:42:33.949Z,81.05
2023-03-21T11:43:33.919Z,81.46
2023-03-21T11:44:33.939Z,81.67
2023-03-21T11:45:33.901Z,81.63
2023-03-21T11:46:34.003Z,81.42
2023-03-21T11:47:33.871Z,81.32
2023-03-21T11:48:33.867Z,81.12
2023-03-21T11:49:33.842Z,81.05
2023-03-21T11:50:33.909Z,81.36
2023-03-21T11:51:33.819Z,81.53
2023-03-21T11:52:33.809Z,81.42
2023-03-21T11:53:33.796Z,80.98
2023-03-21T11:54:33.805Z,80.33
2023-03-21T11:55:33.783Z,79.92
2023-03-21T11:56:33.765Z,79.68
2023-03-21T11:57:33.788Z,79.47
2023-03-21T11:58:33.771Z,78.83
2023-03-21T11:59:33.736Z,78.32
2023-03-21T12:00:33.733Z,77.87
2023-03-21T12:01:33.703Z,77.87
2023-03-21T12:02:33.729Z,77.91
2023-03-21T12:03:46.884Z,77.67
2023-03-21T12:04:33.713Z,77.47
2023-03-21T12:05:33.654Z,77.47
2023-03-21T12:06:33.647Z,77.02
2023-03-21T12:07:33.637Z,76.92
2023-03-21T12:08:33.622Z,76.61
2023-03-21T12:09:33.617Z,76.31
2023-03-21T12:10:33.623Z,76.41
2023-03-21T12:11:33.600Z,76.95
2023-03-21T12:12:39.110Z,77.22
2023-03-21T12:13:33.602Z,76.68
2023-03-21T12:14:33.555Z,76.07
2023-03-21T12:15:33.567Z,75.76
2023-03-21T12:16:33.595Z,75.46
2023-03-21T12:17:33.525Z,75.80
2023-03-21T12:18:33.514Z,76.25
2023-03-21T12:19:33.504Z,76.65
2023-03-21T12:20:33.491Z,76.89
2023-03-21T12:21:33.484Z,77.64
2023-03-21T12:22:33.468Z,78.25
2023-03-21T12:23:33.568Z,78.56
2023-03-21T12:24:33.445Z,78.90
2023-03-21T12:25:33.434Z,78.86
2023-03-21T12:26:33.431Z,78.80
2023-03-21T12:27:33.414Z,78.96
2023-03-21T12:28:33.587Z,78.72
2023-03-21T12:29:33.522Z,78.22
2023-03-21T12:30:33.378Z,77.91
2023-03-21T12:31:33.486Z,77.91
2023-03-21T12:32:35.502Z,77.67
2023-03-21T12:33:33.353Z,77.36
2023-03-21T12:34:33.332Z,77.06
2023-03-21T12:35:33.358Z,76.95
2023-03-21T12:36:33.314Z,77.26
2023-03-21T12:37:33.298Z,77.47
2023-03-21T12:38:33.291Z,77.36
2023-03-21T12:39:33.292Z,77.16
2023-03-21T12:40:33.267Z,77.16
2023-03-21T12:41:33.257Z,77.16
2023-03-21T12:42:33.267Z,77.26
2023-03-21T12:43:33.265Z,76.92
2023-03-21T12:44:33.220Z,77.13
2023-03-21T12:45:45.847Z,76.82
2023-03-21T12:46:33.246Z,76.92
2023-03-21T12:47:33.191Z,76.92
2023-03-21T12:48:33.182Z,76.82
2023-03-21T12:49:33.183Z,76.51
2023-03-21T12:50:33.152Z,76.61
2023-03-21T12:51:33.141Z,76.82
2023-03-21T12:52:33.128Z,76.82